Time;durP1;ratioP1;P1;durP2;ratioP2;P2;SDS_P1;SDS_P2;PMS_P1;PMS_P2;Temp;Humidity;BMP_temperature;BMP_pressure;BME280_temperature;BME280_humidity;BME280_pressure;Samples;Min_cycle;Max_cycle;Signal;HPM_P1;HPM_P2
2022/06/24 00:01:15;;;;;;;2.08;1.73;;;24.00;99.90;;;;;;5090547;28;20417;-65
2022/06/24 00:03:47;;;;;;;2.00;1.70;;;24.00;99.90;;;;;;5095276;28;20731;-64
2022/06/24 00:06:17;;;;;;;5.00;2.00;;;23.90;99.90;;;;;;5095588;28;20409;-64
2022/06/24 00:09:01;;;;;;;2.75;1.77;;;23.90;99.90;;;;;;5094750;28;20690;-65
2022/06/24 00:11:28;;;;;;;2.92;2.00;;;24.00;99.90;;;;;;5090984;28;20421;-64
2022/06/24 00:14:12;;;;;;;3.03;1.60;;;24.00;99.90;;;;;;5089829;28;20929;-64
2022/06/24 00:17:08;;;;;;;2.90;1.70;;;24.00;99.90;;;;;;5085358;28;20404;-65
2022/06/24 00:19:51;;;;;;;2.38;1.60;;;23.90;99.90;;;;;;5073673;28;20443;-64
2022/06/24 00:22:17;;;;;;;3.03;1.63;;;23.90;99.90;;;;;;5083875;28;20389;-63
2022/06/24 00:24:43;;;;;;;2.25;1.70;;;23.80;99.90;;;;;;5085746;28;20414;-65
2022/06/24 00:27:23;;;;;;;2.30;1.67;;;23.80;99.90;;;;;;5085225;28;20393;-65
2022/06/24 00:29:54;;;;;;;1.70;1.60;;;23.70;99.90;;;;;;5084892;28;20450;-65
2022/06/24 00:32:31;;;;;;;2.38;1.70;;;23.70;99.90;;;;;;5085947;28;20695;-64
2022/06/24 00:35:05;;;;;;;3.13;1.70;;;23.70;99.90;;;;;;5085911;28;20373;-64
2022/06/24 00:37:33;;;;;;;3.30;1.80;;;23.60;99.90;;;;;;5087619;28;20382;-64
2022/06/24 00:40:10;;;;;;;3.58;1.70;;;23.60;99.90;;;;;;5087916;28;20782;-66
2022/06/24 00:42:43;;;;;;;2.60;1.50;;;23.60;99.90;;;;;;5088717;28;20603;-65
2022/06/24 00:45:30;;;;;;;2.72;1.70;;;23.50;99.90;;;;;;5089545;28;20385;-65
2022/06/24 00:47:57;;;;;;;2.70;1.63;;;23.50;99.90;;;;;;5087850;28;20530;-65
2022/06/24 00:50:28;;;;;;;2.92;1.70;;;23.50;99.90;;;;;;5091958;28;20716;-64
2022/06/24 00:52:55;;;;;;;1.90;1.70;;;23.40;99.90;;;;;;5090163;28;20834;-65
2022/06/24 00:55:26;;;;;;;3.00;1.70;;;23.40;99.90;;;;;;5089528;28;20555;-65
2022/06/24 00:57:51;;;;;;;3.95;1.90;;;23.30;99.90;;;;;;5089708;28;20397;-65
2022/06/24 01:00:17;;;;;;;2.42;1.67;;;23.30;99.90;;;;;;5089811;28;20385;-65
2022/06/24 01:02:45;;;;;;;3.60;1.90;;;23.20;99.90;;;;;;5087305;28;20386;-65
2022/06/24 01:05:11;;;;;;;3.47;1.60;;;23.20;99.90;;;;;;5085394;28;20409;-65
2022/06/24 01:07:41;;;;;;;1.52;1.42;;;23.20;99.90;;;;;;5086230;28;20853;-65
2022/06/24 01:10:09;;;;;;;2.00;1.60;;;23.20;99.90;;;;;;5087037;28;20832;-65
2022/06/24 01:12:35;;;;;;;2.08;1.58;;;23.20;99.90;;;;;;5087751;28;20390;-65
2022/06/24 01:15:03;;;;;;;2.53;1.75;;;23.00;99.90;;;;;;5089983;28;20793;-65
2022/06/24 01:17:30;;;;;;;1.80;1.70;;;22.90;99.90;;;;;;5090484;28;20393;-65
2022/06/24 01:19:55;;;;;;;3.30;1.70;;;22.90;99.90;;;;;;5093346;28;20399;-66
2022/06/24 01:22:22;;;;;;;3.22;1.77;;;22.90;99.90;;;;;;5093518;28;20381;-67
2022/06/24 01:24:48;;;;;;;2.83;1.95;;;22.80;99.90;;;;;;5096221;28;20590;-66
2022/06/24 01:27:14;;;;;;;3.23;1.70;;;22.80;99.90;;;;;;5096531;28;20398;-66
2022/06/24 01:29:39;;;;;;;2.85;1.80;;;22.80;99.90;;;;;;5093267;28;20481;-66
2022/06/24 01:32:05;;;;;;;5.97;2.00;;;22.70;99.90;;;;;;5093167;28;20432;-64
2022/06/24 01:34:31;;;;;;;2.58;1.75;;;22.70;99.90;;;;;;5092308;28;21026;-66
2022/06/24 01:36:57;;;;;;;2.20;1.70;;;22.60;99.90;;;;;;5091823;28;20382;-65
2022/06/24 01:39:23;;;;;;;2.58;1.90;;;22.60;99.90;;;;;;5092048;28;20400;-65
2022/06/24 01:41:49;;;;;;;2.27;1.97;;;22.60;99.90;;;;;;5089138;28;20398;-65
2022/06/24 01:44:15;;;;;;;3.88;1.88;;;22.60;99.90;;;;;;5091588;28;20851;-64
2022/06/24 01:46:40;;;;;;;2.10;1.90;;;22.40;99.90;;;;;;5095154;28;20418;-66
2022/06/24 01:49:07;;;;;;;3.40;1.80;;;22.30;99.90;;;;;;5092417;28;20475;-66
2022/06/24 01:51:35;;;;;;;3.15;1.63;;;22.30;99.90;;;;;;5094492;28;20411;-66
2022/06/24 01:54:01;;;;;;;3.50;1.90;;;22.40;99.90;;;;;;5094525;28;20382;-66
2022/06/24 01:56:26;;;;;;;2.33;1.90;;;22.30;99.90;;;;;;5094472;28;20398;-65
2022/06/24 01:58:52;;;;;;;2.00;1.88;;;22.20;99.90;;;;;;5093754;28;20381;-67
2022/06/24 02:01:18;;;;;;;2.33;1.88;;;22.20;99.90;;;;;;5093161;28;20394;-66
2022/06/24 02:03:43;;;;;;;2.10;1.90;;;22.20;99.90;;;;;;5091768;28;20429;-66
2022/06/24 02:06:11;;;;;;;2.00;1.90;;;22.20;99.90;;;;;;5093402;28;20405;-66
2022/06/24 02:08:37;;;;;;;2.90;1.90;;;22.20;99.90;;;;;;5092218;28;20378;-66
2022/06/24 02:13:48;;;;;;;2.80;2.10;;;22.10;99.90;;;;;;5092916;28;20812;-66
2022/06/24 02:16:15;;;;;;;2.65;1.85;;;22.10;99.90;;;;;;5094698;28;20401;-66
2022/06/24 02:18:41;;;;;;;2.63;1.88;;;22.10;99.90;;;;;;5094769;28;20393;-66
2022/06/24 02:21:07;;;;;;;2.03;1.80;;;22.10;99.90;;;;;;5095475;28;20382;-66
2022/06/24 02:23:33;;;;;;;2.67;1.98;;;22.00;99.90;;;;;;5094508;28;20382;-66
2022/06/24 02:25:59;;;;;;;3.50;2.00;;;21.90;99.90;;;;;;5093093;28;20467;-66
2022/06/24 02:28:24;;;;;;;3.38;2.10;;;21.90;99.90;;;;;;5092474;28;20378;-66
2022/06/24 02:30:56;;;;;;;2.30;1.77;;;21.90;99.90;;;;;;5092819;28;20695;-66
2022/06/24 02:33:21;;;;;;;2.43;1.73;;;21.90;99.90;;;;;;5094816;28;20397;-66
2022/06/24 02:35:47;;;;;;;2.07;1.70;;;21.80;99.90;;;;;;5092239;28;20382;-66
2022/06/24 02:38:13;;;;;;;3.08;1.98;;;21.80;99.90;;;;;;5092741;28;20402;-66
2022/06/24 02:40:48;;;;;;;3.50;2.00;;;21.80;99.90;;;;;;5092828;28;20390;-66
2022/06/24 02:43:26;;;;;;;3.17;1.80;;;21.70;99.90;;;;;;5092066;28;20386;-66
2022/06/24 02:45:57;;;;;;;3.67;1.80;;;21.70;99.90;;;;;;5094483;28;20390;-66
2022/06/24 02:48:23;;;;;;;4.30;2.22;;;21.70;99.90;;;;;;5092603;28;20528;-66
2022/06/24 02:50:50;;;;;;;3.28;1.85;;;21.70;99.90;;;;;;5092179;28;20394;-66
2022/06/24 02:53:18;;;;;;;2.70;1.93;;;21.70;99.90;;;;;;5092268;28;20661;-66
2022/06/24 02:55:52;;;;;;;2.17;1.85;;;21.60;99.90;;;;;;5090534;28;20386;-66
2022/06/24 02:58:18;;;;;;;2.90;1.80;;;21.60;99.90;;;;;;5091053;28;20417;-66
2022/06/24 03:00:44;;;;;;;2.28;1.80;;;21.50;99.90;;;;;;5091736;28;21122;-66
2022/06/24 03:03:11;;;;;;;2.03;1.73;;;21.50;99.90;;;;;;5091538;28;20418;-65
2022/06/24 03:05:36;;;;;;;2.83;1.80;;;21.50;99.90;;;;;;5090907;28;20741;-65
2022/06/24 03:08:27;;;;;;;2.40;1.80;;;21.50;99.90;;;;;;5092157;28;20855;-66
2022/06/24 03:10:54;;;;;;;2.60;1.92;;;21.40;99.90;;;;;;5092645;28;20445;-66
2022/06/24 03:13:19;;;;;;;2.47;1.88;;;21.40;99.90;;;;;;5093218;28;20382;-66
2022/06/24 03:15:45;;;;;;;4.53;2.13;;;21.40;99.90;;;;;;5091542;28;20408;-66
2022/06/24 03:18:12;;;;;;;2.27;2.03;;;21.40;99.90;;;;;;5092037;28;20395;-66
2022/06/24 03:20:38;;;;;;;3.10;2.00;;;21.40;99.90;;;;;;5092856;28;20392;-66
2022/06/24 03:23:04;;;;;;;3.25;2.30;;;21.40;99.90;;;;;;5091664;28;20473;-66
2022/06/24 03:25:30;;;;;;;2.60;1.77;;;21.40;99.90;;;;;;5092969;28;20461;-65
2022/06/24 03:27:56;;;;;;;3.28;1.88;;;21.40;99.90;;;;;;5091319;28;20686;-65
2022/06/24 03:30:22;;;;;;;2.42;1.60;;;21.40;99.90;;;;;;5088814;28;20653;-66
2022/06/24 03:32:47;;;;;;;2.60;1.80;;;21.40;99.90;;;;;;5089323;28;20447;-67
2022/06/24 03:35:13;;;;;;;3.00;1.83;;;21.40;99.90;;;;;;5090361;28;20394;-66
2022/06/24 03:37:39;;;;;;;2.30;1.90;;;21.40;99.90;;;;;;5090809;28;20385;-66
2022/06/24 03:40:05;;;;;;;2.33;1.90;;;21.50;99.90;;;;;;5091957;28;20416;-66
2022/06/24 03:42:30;;;;;;;2.50;1.75;;;21.40;99.90;;;;;;5091669;28;20411;-66
2022/06/24 03:44:56;;;;;;;3.70;1.98;;;21.30;99.90;;;;;;5091266;28;20382;-66
2022/06/24 03:47:22;;;;;;;2.00;1.80;;;21.30;99.90;;;;;;5092452;28;20382;-66
2022/06/24 03:49:50;;;;;;;2.33;2.13;;;21.30;99.90;;;;;;5092362;28;20401;-66
2022/06/24 03:52:16;;;;;;;2.33;1.80;;;21.30;99.90;;;;;;5093777;28;20378;-66
2022/06/24 03:54:42;;;;;;;2.00;1.80;;;21.30;99.90;;;;;;5093652;28;20496;-66
2022/06/24 03:57:07;;;;;;;3.03;1.80;;;21.30;99.90;;;;;;5091930;28;20728;-66
2022/06/24 03:59:33;;;;;;;3.73;1.97;;;21.30;99.90;;;;;;5091054;28;20418;-66
2022/06/24 04:01:58;;;;;;;2.92;1.85;;;21.30;99.90;;;;;;5089725;28;20388;-66
2022/06/24 04:04:24;;;;;;;3.10;2.27;;;21.30;99.90;;;;;;5088816;28;20472;-66
2022/06/24 04:06:50;;;;;;;3.13;1.90;;;21.30;99.90;;;;;;5089880;28;20489;-67
2022/06/24 04:09:16;;;;;;;3.85;1.90;;;21.30;99.90;;;;;;5090579;28;20394;-66
2022/06/24 04:11:42;;;;;;;2.35;1.83;;;21.30;99.90;;;;;;5090255;28;20401;-66
2022/06/24 04:14:07;;;;;;;4.43;1.93;;;21.30;99.90;;;;;;5088932;28;20451;-66
2022/06/24 04:16:33;;;;;;;3.80;2.05;;;21.30;99.90;;;;;;5087009;28;20902;-66
2022/06/24 04:18:58;;;;;;;2.83;2.00;;;21.40;99.90;;;;;;5087729;28;20390;-66
2022/06/24 04:21:24;;;;;;;2.13;1.83;;;21.40;99.90;;;;;;5087520;28;20477;-66
2022/06/24 04:23:50;;;;;;;4.10;1.97;;;21.40;99.90;;;;;;5086804;28;20732;-66
2022/06/24 04:26:20;;;;;;;2.95;2.20;;;21.40;99.90;;;;;;5087439;28;20429;-66
2022/06/24 04:28:46;;;;;;;2.95;1.85;;;21.40;99.90;;;;;;5087273;28;20393;-66
2022/06/24 04:31:13;;;;;;;2.50;1.73;;;21.40;99.90;;;;;;5086805;28;20640;-66
2022/06/24 04:33:39;;;;;;;2.58;1.95;;;21.50;99.90;;;;;;5087636;28;20650;-66
2022/06/24 04:36:11;;;;;;;2.87;2.07;;;21.50;99.90;;;;;;5084679;28;20378;-66
2022/06/24 04:38:37;;;;;;;2.75;2.20;;;21.50;99.90;;;;;;5083047;28;20689;-66
2022/06/24 04:41:11;;;;;;;4.13;2.03;;;21.50;99.90;;;;;;5083447;28;20382;-66
2022/06/24 04:43:36;;;;;;;4.15;2.00;;;21.50;99.90;;;;;;5080377;28;20761;-66
2022/06/24 04:46:02;;;;;;;2.60;2.00;;;21.50;99.90;;;;;;5080200;28;20482;-65
2022/06/24 04:48:27;;;;;;;3.70;2.00;;;21.50;99.90;;;;;;5080918;28;20385;-65
2022/06/24 04:50:53;;;;;;;2.80;2.30;;;21.40;99.90;;;;;;5081884;28;20412;-66
2022/06/24 04:53:18;;;;;;;2.50;2.00;;;21.50;99.90;;;;;;5083038;28;20834;-66
2022/06/24 04:55:44;;;;;;;3.72;2.30;;;21.50;99.90;;;;;;5083018;28;20439;-66
2022/06/24 04:58:09;;;;;;;3.13;2.10;;;21.50;99.90;;;;;;5080693;28;20436;-66
2022/06/24 05:00:35;;;;;;;3.88;2.47;;;21.50;99.90;;;;;;5081894;28;20800;-66
2022/06/24 05:03:01;;;;;;;3.00;2.17;;;21.50;99.90;;;;;;5079948;28;20597;-66
2022/06/24 05:05:26;;;;;;;4.25;2.00;;;21.50;99.90;;;;;;5079886;28;20937;-66
2022/06/24 05:07:52;;;;;;;2.45;2.15;;;21.50;99.90;;;;;;5081195;28;20400;-66
2022/06/24 05:10:17;;;;;;;3.20;2.00;;;21.50;99.90;;;;;;5085031;28;20629;-66
2022/06/24 05:12:43;;;;;;;2.20;2.00;;;21.50;99.90;;;;;;5084147;28;20394;-66
2022/06/24 05:15:09;;;;;;;2.90;2.20;;;21.60;99.90;;;;;;5084606;28;20394;-66
2022/06/24 05:17:34;;;;;;;3.20;2.20;;;21.60;99.90;;;;;;5085622;28;20386;-65
2022/06/24 05:20:00;;;;;;;3.53;2.30;;;21.60;99.90;;;;;;5086210;28;20852;-65
2022/06/24 05:22:26;;;;;;;3.00;2.20;;;21.60;99.90;;;;;;5085954;28;20491;-65
2022/06/24 05:24:51;;;;;;;2.40;2.13;;;21.60;99.90;;;;;;5086717;28;20386;-65
2022/06/24 05:27:17;;;;;;;3.77;2.20;;;21.60;99.90;;;;;;5085061;28;20691;-65
2022/06/24 05:29:42;;;;;;;3.22;2.40;;;21.70;99.90;;;;;;5084195;28;20420;-66
2022/06/24 05:32:08;;;;;;;2.37;2.00;;;21.60;99.90;;;;;;5084744;28;20574;-66
2022/06/24 05:34:34;;;;;;;2.65;2.20;;;21.70;99.90;;;;;;5084172;28;20631;-66
2022/06/24 05:36:59;;;;;;;2.77;2.10;;;21.70;99.90;;;;;;5083486;28;20390;-66
2022/06/24 05:39:25;;;;;;;5.47;2.50;;;21.80;99.90;;;;;;5084138;28;20642;-65
2022/06/24 05:41:50;;;;;;;2.63;2.17;;;21.80;99.90;;;;;;5083629;28;20837;-65
2022/06/24 05:44:16;;;;;;;3.85;2.28;;;21.80;99.90;;;;;;5085094;28;20387;-65
2022/06/24 05:46:42;;;;;;;3.97;2.13;;;21.90;99.90;;;;;;5085816;28;20397;-65
2022/06/24 05:49:08;;;;;;;7.60;2.33;;;21.90;99.90;;;;;;5086543;28;20668;-65
2022/06/24 05:51:36;;;;;;;2.37;2.10;;;21.90;99.90;;;;;;5085858;28;20726;-65
2022/06/24 05:56:46;;;;;;;3.15;2.13;;;22.00;99.90;;;;;;5084525;28;20805;-66
2022/06/24 05:59:12;;;;;;;2.47;2.20;;;22.10;99.90;;;;;;5083675;28;20758;-66
2022/06/24 06:01:38;;;;;;;2.80;2.30;;;22.10;99.90;;;;;;5082480;28;20873;-65
2022/06/24 06:04:04;;;;;;;3.77;2.43;;;22.10;99.90;;;;;;5083706;28;20465;-66
2022/06/24 06:06:29;;;;;;;3.72;2.10;;;22.20;99.90;;;;;;5082496;28;20418;-66
2022/06/24 06:08:57;;;;;;;4.07;2.17;;;22.30;99.90;;;;;;5081511;28;20416;-64
2022/06/24 06:11:24;;;;;;;3.05;2.30;;;22.30;99.90;;;;;;5081567;28;20624;-64
2022/06/24 06:13:51;;;;;;;2.58;2.38;;;22.30;99.90;;;;;;5083022;28;20369;-63
2022/06/24 06:16:17;;;;;;;4.07;2.60;;;22.30;99.90;;;;;;5080660;28;20374;-64
2022/06/24 06:18:43;;;;;;;4.40;2.47;;;22.30;99.90;;;;;;5082126;28;20428;-63
2022/06/24 06:21:10;;;;;;;4.47;2.60;;;22.40;99.90;;;;;;5083800;28;20421;-63
2022/06/24 06:23:37;;;;;;;3.38;2.38;;;22.40;99.90;;;;;;5081354;28;20578;-64
2022/06/24 06:26:05;;;;;;;2.80;2.40;;;22.50;99.90;;;;;;5081755;28;20433;-64
2022/06/24 06:28:31;;;;;;;5.50;2.50;;;22.50;99.90;;;;;;5081685;28;20379;-64
2022/06/24 06:30:56;;;;;;;3.97;2.03;;;22.50;99.90;;;;;;5083284;28;20518;-64
2022/06/24 06:33:22;;;;;;;3.77;2.53;;;22.60;99.90;;;;;;5084620;28;20385;-64
2022/06/24 06:35:48;;;;;;;3.40;2.60;;;22.60;99.90;;;;;;5084972;28;20374;-64
2022/06/24 06:38:15;;;;;;;3.28;2.53;;;22.60;99.90;;;;;;5081572;28;20582;-65
2022/06/24 06:40:41;;;;;;;2.67;2.28;;;22.60;99.90;;;;;;5082426;28;20615;-65
2022/06/24 06:43:07;;;;;;;2.95;2.40;;;22.60;99.90;;;;;;5080419;28;20693;-65
2022/06/24 06:45:33;;;;;;;2.70;2.20;;;22.60;99.90;;;;;;5078445;28;20393;-65
2022/06/24 06:47:59;;;;;;;2.88;2.50;;;22.70;99.90;;;;;;5075037;28;20528;-65
2022/06/24 06:50:25;;;;;;;3.83;2.88;;;22.70;99.90;;;;;;5075634;28;20401;-65
2022/06/24 06:52:51;;;;;;;7.68;3.05;;;22.80;99.90;;;;;;5075034;28;20654;-65
2022/06/24 06:55:16;;;;;;;4.57;2.63;;;22.70;99.90;;;;;;5076575;28;20385;-64
2022/06/24 06:57:42;;;;;;;4.43;2.73;;;22.70;99.90;;;;;;5076834;28;20501;-64
2022/06/24 07:00:11;;;;;;;3.33;2.72;;;22.80;99.90;;;;;;5077758;28;20382;-64
2022/06/24 07:02:37;;;;;;;7.45;2.92;;;22.80;99.90;;;;;;5080438;28;20381;-65
2022/06/24 07:05:04;;;;;;;6.80;3.13;;;22.80;99.90;;;;;;5080137;28;20431;-65
2022/06/24 07:07:29;;;;;;;7.85;3.15;;;22.80;99.90;;;;;;5078595;28;20576;-65
2022/06/24 07:09:56;;;;;;;7.63;3.17;;;22.70;99.90;;;;;;5075068;28;20672;-65
2022/06/24 07:12:22;;;;;;;3.90;3.00;;;22.70;99.90;;;;;;5073845;28;20394;-65
2022/06/24 07:14:48;;;;;;;4.50;2.90;;;22.80;99.90;;;;;;5071866;28;20405;-65
2022/06/24 07:17:14;;;;;;;4.20;2.97;;;22.90;99.90;;;;;;5076352;28;20654;-65
2022/06/24 07:19:39;;;;;;;4.77;3.00;;;23.00;99.90;;;;;;5076538;28;20782;-66
2022/06/24 07:22:05;;;;;;;3.83;2.90;;;23.00;99.90;;;;;;5078827;28;20488;-65
2022/06/24 07:24:31;;;;;;;3.60;2.80;;;23.10;99.90;;;;;;5079828;28;20388;-65
2022/06/24 07:26:56;;;;;;;5.13;3.00;;;23.10;99.90;;;;;;5082399;28;20393;-65
2022/06/24 07:29:22;;;;;;;4.53;2.92;;;23.20;99.90;;;;;;5080139;28;20402;-65
2022/06/24 07:31:47;;;;;;;4.83;3.13;;;23.20;99.90;;;;;;5080941;28;20381;-65
2022/06/24 07:34:17;;;;;;;3.15;2.65;;;23.20;99.90;;;;;;5078920;28;20381;-65
2022/06/24 07:36:43;;;;;;;4.65;2.75;;;23.30;99.90;;;;;;5080040;28;20740;-65
2022/06/24 07:39:09;;;;;;;4.88;2.80;;;23.40;99.90;;;;;;5082323;28;20732;-65
2022/06/24 07:41:35;;;;;;;4.78;3.05;;;23.50;99.90;;;;;;5081403;28;20934;-65
2022/06/24 07:44:01;;;;;;;3.15;2.53;;;23.60;99.90;;;;;;5082927;28;20407;-65
2022/06/24 07:46:27;;;;;;;2.97;2.70;;;23.70;99.90;;;;;;5081812;28;20477;-65
2022/06/24 07:48:53;;;;;;;3.50;2.40;;;23.70;99.90;;;;;;5078294;28;20616;-65
2022/06/24 07:51:19;;;;;;;5.80;3.30;;;23.80;99.90;;;;;;5076216;28;20514;-65
2022/06/24 07:53:46;;;;;;;6.22;5.05;;;23.80;99.90;;;;;;5076837;28;20449;-65
2022/06/24 07:58:57;;;;;;;3.55;2.97;;;23.90;99.90;;;;;;5078339;28;20427;-65
2022/06/24 08:01:23;;;;;;;4.13;3.07;;;24.00;99.90;;;;;;5077854;28;20394;-65
2022/06/24 08:03:49;;;;;;;3.38;3.08;;;24.10;99.90;;;;;;5079331;28;20394;-65
2022/06/24 08:06:15;;;;;;;5.75;2.95;;;24.10;99.90;;;;;;5078213;28;20692;-65
2022/06/24 08:08:41;;;;;;;5.30;3.10;;;24.20;99.90;;;;;;5081808;28;20416;-65
2022/06/24 08:11:07;;;;;;;5.78;3.08;;;24.20;99.90;;;;;;5082505;28;20571;-65
2022/06/24 08:13:33;;;;;;;4.30;3.20;;;24.20;99.90;;;;;;5080778;28;20366;-65
2022/06/24 08:16:00;;;;;;;4.40;3.13;;;24.20;99.90;;;;;;5079707;28;20398;-65
2022/06/24 08:18:26;;;;;;;3.10;2.80;;;24.20;99.90;;;;;;5077863;28;20572;-65
2022/06/24 08:20:51;;;;;;;3.33;3.03;;;24.30;99.90;;;;;;5076317;28;20382;-65
2022/06/24 08:23:17;;;;;;;4.15;3.10;;;24.40;99.90;;;;;;5076864;28;20813;-65
2022/06/24 08:25:43;;;;;;;5.88;3.22;;;24.50;99.90;;;;;;5078348;28;20700;-65
2022/06/24 08:28:09;;;;;;;3.05;2.85;;;24.50;99.90;;;;;;5079540;28;20422;-65
2022/06/24 08:30:35;;;;;;;3.90;2.83;;;24.50;99.90;;;;;;5078993;28;20405;-65
2022/06/24 08:33:02;;;;;;;5.10;3.08;;;24.60;99.90;;;;;;5080472;28;20423;-65
2022/06/24 08:35:27;;;;;;;2.70;2.50;;;24.70;99.90;;;;;;5080036;28;20385;-65
2022/06/24 08:37:54;;;;;;;5.30;3.30;;;24.80;99.90;;;;;;5078649;28;20682;-65
2022/06/24 08:40:20;;;;;;;3.30;3.00;;;24.80;99.90;;;;;;5076768;28;20649;-65
2022/06/24 08:42:53;;;;;;;5.57;3.13;;;24.80;99.90;;;;;;5076132;28;20597;-65
2022/06/24 08:45:19;;;;;;;3.45;2.60;;;24.90;99.90;;;;;;5075662;28;20863;-65
2022/06/24 08:47:48;;;;;;;4.37;2.80;;;24.90;99.90;;;;;;5073270;28;20854;-65
2022/06/24 08:50:16;;;;;;;3.75;3.10;;;25.00;99.90;;;;;;5075957;28;20500;-65
2022/06/24 08:52:54;;;;;;;5.97;3.60;;;25.10;99.90;;;;;;5078360;28;20366;-65
2022/06/24 08:55:20;;;;;;;3.03;2.72;;;25.10;99.90;;;;;;5077829;28;20868;-65
2022/06/24 08:57:47;;;;;;;3.05;2.72;;;25.20;99.90;;;;;;5080047;28;20408;-65
2022/06/24 09:00:13;;;;;;;4.70;3.47;;;25.20;99.90;;;;;;5079304;28;20483;-65
2022/06/24 09:02:39;;;;;;;4.00;3.10;;;25.20;99.90;;;;;;5079073;28;20801;-65
2022/06/24 09:05:13;;;;;;;4.50;3.20;;;25.30;99.90;;;;;;5075067;28;20434;-65
2022/06/24 09:07:39;;;;;;;3.63;2.63;;;25.30;99.90;;;;;;5076056;28;20408;-64
2022/06/24 09:10:13;;;;;;;4.65;2.70;;;25.40;99.90;;;;;;5081502;28;21027;-65
2022/06/24 09:12:44;;;;;;;6.10;3.00;;;25.40;99.90;;;;;;5081159;28;20488;-65
2022/06/24 09:15:12;;;;;;;4.35;3.00;;;25.60;99.90;;;;;;5080299;28;20377;-65
2022/06/24 09:17:39;;;;;;;3.70;2.97;;;25.60;99.90;;;;;;5081467;28;20778;-65
2022/06/24 09:20:15;;;;;;;5.18;3.20;;;25.70;99.90;;;;;;5082663;28;20374;-65
2022/06/24 09:22:40;;;;;;;3.22;2.92;;;25.70;99.90;;;;;;5085362;28;20378;-65
2022/06/24 09:25:07;;;;;;;4.15;3.10;;;25.80;99.90;;;;;;5084403;28;20385;-65
2022/06/24 09:27:34;;;;;;;3.30;3.00;;;25.90;99.90;;;;;;5088007;28;20398;-65
2022/06/24 09:30:00;;;;;;;3.85;3.28;;;26.00;99.90;;;;;;5089612;28;20401;-65
2022/06/24 09:32:25;;;;;;;3.20;2.90;;;26.10;99.90;;;;;;5089578;28;20389;-65
2022/06/24 09:34:58;;;;;;;6.30;3.40;;;26.20;99.90;;;;;;5089760;28;20386;-65
2022/06/24 09:37:33;;;;;;;4.75;3.20;;;26.30;99.90;;;;;;5088408;28;20791;-65
2022/06/24 09:40:14;;;;;;;3.65;3.30;;;26.40;99.90;;;;;;5087477;28;20386;-65
2022/06/24 09:42:40;;;;;;;4.00;3.20;;;26.50;99.90;;;;;;5085445;28;20928;-65
2022/06/24 09:45:06;;;;;;;4.13;3.30;;;26.50;99.90;;;;;;5087177;28;20380;-65
2022/06/24 09:47:40;;;;;;;4.95;3.45;;;26.60;99.90;;;;;;5087398;28;20831;-65
2022/06/24 09:50:06;;;;;;;6.00;3.35;;;26.60;99.90;;;;;;5088652;28;20408;-65
2022/06/24 09:52:32;;;;;;;4.43;3.50;;;26.70;99.90;;;;;;5086869;28;20411;-66
2022/06/24 09:55:01;;;;;;;3.90;3.22;;;26.80;99.90;;;;;;5082109;28;20410;-65
2022/06/24 09:57:28;;;;;;;4.38;3.50;;;26.80;99.90;;;;;;5084259;28;20389;-65
2022/06/24 10:02:39;;;;;;;4.65;3.38;;;26.90;99.90;;;;;;5084203;28;20458;-66
2022/06/24 10:05:08;;;;;;;3.60;3.10;;;27.10;99.90;;;;;;5083975;28;20402;-66
2022/06/24 10:07:35;;;;;;;4.65;3.25;;;27.10;99.90;;;;;;5084725;28;20484;-65
2022/06/24 10:10:06;;;;;;;3.13;2.90;;;27.10;99.90;;;;;;5086837;28;20433;-66
2022/06/24 10:12:40;;;;;;;6.40;3.55;;;27.10;99.90;;;;;;5084742;28;21287;-66
2022/06/24 10:15:06;;;;;;;4.10;3.42;;;27.20;99.90;;;;;;5086085;28;20725;-65
2022/06/24 10:17:34;;;;;;;4.32;3.92;;;27.30;99.90;;;;;;5084533;28;20411;-66
2022/06/24 10:20:01;;;;;;;6.37;3.80;;;27.30;99.90;;;;;;5082503;28;20480;-65
2022/06/24 10:22:44;;;;;;;4.88;3.70;;;27.40;99.90;;;;;;5078859;28;20385;-66
2022/06/24 10:25:10;;;;;;;6.00;4.10;;;27.40;99.90;;;;;;5079678;28;20397;-65
2022/06/24 10:28:14;;;;;;;7.72;3.80;;;27.50;99.90;;;;;;5081202;28;20454;-65
2022/06/24 10:30:40;;;;;;;4.72;3.58;;;27.50;99.90;;;;;;5020751;28;20786;-65
2022/06/24 10:33:11;;;;;;;3.83;3.37;;;27.50;99.90;;;;;;5003934;28;20387;-65
2022/06/24 10:36:01;;;;;;;6.07;3.42;;;27.60;99.90;;;;;;5040006;28;20628;-66
2022/06/24 10:38:38;;;;;;;5.35;3.58;;;27.70;99.90;;;;;;5080489;28;20555;-66
2022/06/24 10:41:05;;;;;;;5.07;3.17;;;27.70;99.90;;;;;;5081198;28;20672;-66
2022/06/24 10:43:36;;;;;;;3.33;3.10;;;27.80;99.90;;;;;;5077380;28;20439;-65
2022/06/24 10:46:22;;;;;;;5.40;3.67;;;27.90;99.90;;;;;;5079325;28;20436;-65
2022/06/24 10:48:51;;;;;;;3.70;3.30;;;28.00;99.90;;;;;;5077588;28;20382;-65
2022/06/24 10:51:21;;;;;;;7.97;4.90;;;28.10;99.90;;;;;;5079275;28;20798;-65
2022/06/24 10:54:02;;;;;;;6.78;3.97;;;27.90;99.90;;;;;;5075477;28;20905;-66
2022/06/24 10:56:45;;;;;;;4.60;3.83;;;27.50;99.90;;;;;;5073619;28;20802;-66
2022/06/24 10:59:15;;;;;;;5.57;3.70;;;27.40;99.90;;;;;;5072100;28;20421;-66
2022/06/24 11:01:42;;;;;;;4.82;3.80;;;27.40;99.90;;;;;;5069404;28;20636;-65
2022/06/24 11:04:11;;;;;;;7.85;3.80;;;27.40;99.90;;;;;;5072989;28;20378;-66
2022/06/24 11:06:37;;;;;;;6.78;3.90;;;27.30;99.90;;;;;;5072161;28;20405;-65
2022/06/24 11:09:07;;;;;;;5.53;3.45;;;27.40;99.90;;;;;;5072359;28;20400;-66
2022/06/24 11:11:33;;;;;;;4.10;3.70;;;27.40;99.90;;;;;;5072725;28;20390;-66
2022/06/24 11:13:59;;;;;;;6.15;3.75;;;27.50;99.90;;;;;;5073523;28;20682;-66
2022/06/24 11:16:28;;;;;;;4.03;3.50;;;27.40;99.90;;;;;;5076574;28;20385;-66
2022/06/24 11:18:56;;;;;;;4.40;3.60;;;27.60;99.90;;;;;;5079924;28;20394;-66
2022/06/24 11:21:22;;;;;;;5.13;3.92;;;27.50;99.90;;;;;;5079869;28;20378;-66
2022/06/24 11:23:52;;;;;;;4.97;4.20;;;27.60;99.90;;;;;;5078455;28;20615;-65
2022/06/24 11:26:19;;;;;;;4.20;3.53;;;27.80;99.90;;;;;;5078870;28;20389;-65
2022/06/24 11:28:55;;;;;;;6.50;4.18;;;28.10;99.90;;;;;;5077468;28;20394;-65
2022/06/24 11:31:26;;;;;;;5.60;3.75;;;28.30;99.90;;;;;;5079389;28;20700;-65
2022/06/24 11:34:02;;;;;;;4.50;4.10;;;28.50;99.90;;;;;;5081538;28;20667;-65
2022/06/24 11:36:31;;;;;;;5.72;4.40;;;28.70;99.90;;;;;;5080870;28;20809;-65
2022/06/24 11:38:58;;;;;;;6.60;3.75;;;28.80;99.90;;;;;;5081940;28;20385;-65
2022/06/24 11:41:25;;;;;;;6.40;3.70;;;28.90;99.90;;;;;;5080957;28;20418;-65
2022/06/24 11:43:52;;;;;;;5.03;3.80;;;29.10;99.90;;;;;;5078918;28;20785;-65
2022/06/24 11:46:18;;;;;;;5.57;3.63;;;29.30;99.90;;;;;;5079429;28;20702;-65
2022/06/24 11:48:43;;;;;;;5.70;4.00;;;29.50;99.90;;;;;;5077850;28;20615;-65
2022/06/24 11:51:20;;;;;;;5.45;3.75;;;29.70;99.90;;;;;;5082295;28;20416;-66
2022/06/24 11:54:00;;;;;;;6.85;3.88;;;29.70;99.90;;;;;;5088033;28;20370;-65
2022/06/24 11:56:38;;;;;;;4.15;3.45;;;29.90;99.90;;;;;;5089041;28;20809;-65
2022/06/24 11:59:06;;;;;;;3.70;3.40;;;30.10;99.90;;;;;;5081628;28;20393;-65
2022/06/24 12:01:33;;;;;;;5.47;3.58;;;30.40;99.90;;;;;;5079489;28;20390;-65
2022/06/24 12:04:06;;;;;;;4.40;3.30;;;30.60;99.90;;;;;;5077312;28;20382;-65
2022/06/24 12:06:33;;;;;;;4.43;3.40;;;30.60;99.90;;;;;;5074794;28;20654;-65
2022/06/24 12:09:00;;;;;;;3.85;3.45;;;30.40;99.90;;;;;;5076639;28;20472;-65
2022/06/24 12:11:26;;;;;;;6.57;3.70;;;30.20;99.90;;;;;;5074330;28;20390;-65
2022/06/24 12:13:59;;;;;;;5.38;3.63;;;29.90;99.90;;;;;;5074084;28;20971;-65
2022/06/24 12:16:26;;;;;;;5.15;3.85;;;29.70;99.90;;;;;;5076023;28;20397;-65
2022/06/24 12:18:52;;;;;;;4.60;3.60;;;29.50;99.90;;;;;;5082115;28;20516;-65
2022/06/24 12:21:25;;;;;;;7.27;3.93;;;29.40;99.90;;;;;;5085922;28;20849;-65
2022/06/24 12:23:52;;;;;;;9.90;3.92;;;29.20;99.90;;;;;;5085103;28;20392;-66
2022/06/24 12:26:21;;;;;;;10.80;3.88;;;28.70;99.90;;;;;;5086361;28;20394;-65
2022/06/24 12:29:02;;;;;;;12.73;4.20;;;28.10;99.90;;;;;;5086172;28;21020;-65
2022/06/24 12:31:29;;;;;;;9.30;3.45;;;27.40;99.90;;;;;;5087754;28;20492;-66
2022/06/24 12:33:56;;;;;;;10.38;3.92;;;27.10;99.90;;;;;;5085738;28;20377;-65
2022/06/24 12:36:23;;;;;;;10.48;3.90;;;27.00;99.90;;;;;;5087131;28;21141;-65
2022/06/24 12:38:51;;;;;;;9.40;4.40;;;26.70;99.90;;;;;;5087617;28;20457;-67
2022/06/24 12:41:19;;;;;;;7.43;4.40;;;26.40;99.90;;;;;;5084529;28;20390;-66
2022/06/24 12:43:57;;;;;;;6.07;4.13;;;26.20;99.90;;;;;;5076075;28;20389;-65
2022/06/24 12:46:25;;;;;;;11.43;4.70;;;26.00;99.90;;;;;;5072332;28;20566;-65
2022/06/24 12:51:40;;;;;;;7.35;4.13;;;25.80;99.90;;;;;;5071701;28;20551;-65
2022/06/24 12:54:06;;;;;;;8.35;4.25;;;25.70;99.90;;;;;;5073311;28;20385;-65
2022/06/24 12:56:34;;;;;;;7.85;4.70;;;25.70;99.90;;;;;;5076239;28;20413;-65
2022/06/24 12:59:00;;;;;;;10.07;4.10;;;25.60;99.90;;;;;;5076076;28;20462;-66
2022/06/24 13:01:26;;;;;;;7.75;4.35;;;25.60;99.90;;;;;;5076780;28;20377;-66
2022/06/24 13:03:52;;;;;;;7.80;4.60;;;25.60;99.90;;;;;;5079052;28;20612;-65